Time;durP1;ratioP1;P1;durP2;ratioP2;P2;SDS_P1;SDS_P2;PMS_P1;PMS_P2;Temp;Humidity;BMP_temperature;BMP_pressure;BME280_temperature;BME280_humidity;BME280_pressure;Samples;Min_cycle;Max_cycle;Signal;HPM_P1;HPM_P2
2023/08/26 00:00:09;;;;;;;10.48;2.17;;;44.20;36.70;;;;;;5049546;28;20025;-61
2023/08/26 00:02:36;;;;;;;10.07;2.65;;;44.20;35.70;;;;;;5048252;28;20025;-63
2023/08/26 00:05:03;;;;;;;12.77;2.65;;;44.10;36.00;;;;;;5049344;28;20005;-57
2023/08/26 00:07:29;;;;;;;17.60;2.53;;;44.00;36.30;;;;;;5053006;28;20090;-59
2023/08/26 00:09:56;;;;;;;17.40;2.60;;;44.00;35.80;;;;;;5049447;28;20416;-60
2023/08/26 00:12:22;;;;;;;14.15;2.83;;;43.90;36.60;;;;;;5046598;28;20025;-62
2023/08/26 00:14:48;;;;;;;10.25;2.10;;;43.90;36.30;;;;;;5045290;28;20079;-60
2023/08/26 00:17:15;;;;;;;11.60;2.30;;;43.80;36.20;;;;;;5045345;28;20563;-61
2023/08/26 00:19:42;;;;;;;13.43;2.35;;;43.80;36.30;;;;;;5048561;28;20036;-62
2023/08/26 00:22:09;;;;;;;6.28;2.22;;;43.70;36.20;;;;;;5047993;28;20012;-60
2023/08/26 00:24:36;;;;;;;12.50;2.35;;;43.60;36.20;;;;;;5047588;28;20040;-61
2023/08/26 00:27:03;;;;;;;9.52;2.30;;;43.50;36.50;;;;;;5055731;28;20028;-63
2023/08/26 00:29:30;;;;;;;7.82;1.90;;;43.40;35.50;;;;;;5047452;28;20408;-63
2023/08/26 00:31:56;;;;;;;7.55;2.25;;;43.20;36.50;;;;;;5051760;28;20059;-62
2023/08/26 00:34:22;;;;;;;9.02;2.22;;;43.10;36.70;;;;;;5053512;28;20587;-60
2023/08/26 00:36:49;;;;;;;12.70;2.60;;;43.10;36.40;;;;;;5048144;28;20074;-63
2023/08/26 00:39:15;;;;;;;7.50;2.20;;;43.00;36.80;;;;;;5052665;28;20361;-62
2023/08/26 00:41:42;;;;;;;7.30;2.08;;;43.00;37.10;;;;;;5049389;28;20013;-62
2023/08/26 00:44:08;;;;;;;12.82;2.30;;;43.00;36.70;;;;;;5047853;28;20488;-63
2023/08/26 00:46:35;;;;;;;9.43;2.30;;;42.80;36.60;;;;;;5047127;28;20465;-62
2023/08/26 00:49:02;;;;;;;9.98;2.45;;;42.70;37.20;;;;;;5047076;28;20067;-62
2023/08/26 00:51:29;;;;;;;14.35;2.50;;;42.60;36.70;;;;;;5048788;28;20017;-62
2023/08/26 00:53:55;;;;;;;8.85;2.05;;;42.50;36.90;;;;;;5047076;28;20186;-62
2023/08/26 00:56:23;;;;;;;11.65;1.90;;;42.40;37.40;;;;;;5046966;28;21340;-62
2023/08/26 00:58:49;;;;;;;11.00;2.70;;;42.30;37.10;;;;;;5055377;28;20404;-62
2023/08/26 01:01:15;;;;;;;5.95;2.17;;;42.30;38.10;;;;;;5048234;28;20044;-63
2023/08/26 01:03:42;;;;;;;10.13;2.42;;;42.30;36.90;;;;;;5047244;28;20029;-62
2023/08/26 01:06:08;;;;;;;10.38;3.38;;;42.20;36.90;;;;;;5048448;28;20354;-62
2023/08/26 01:08:35;;;;;;;6.22;2.47;;;42.10;37.50;;;;;;5045576;28;20389;-62
2023/08/26 01:11:16;;;;;;;12.70;2.70;;;42.00;35.80;;;;;;5047544;28;20481;-62
2023/08/26 01:14:01;;;;;;;9.05;2.35;;;41.90;37.70;;;;;;5045639;28;20029;-61
2023/08/26 01:16:30;;;;;;;11.95;2.45;;;41.90;38.10;;;;;;5047283;28;20477;-63
2023/08/26 01:18:57;;;;;;;9.18;2.05;;;41.80;37.50;;;;;;5048150;28;20024;-62
2023/08/26 01:21:33;;;;;;;11.77;2.20;;;41.80;38.40;;;;;;5046840;28;20017;-63
2023/08/26 01:23:59;;;;;;;4.80;2.15;;;41.70;37.90;;;;;;5045850;28;20005;-62
2023/08/26 01:26:26;;;;;;;10.95;2.38;;;41.60;38.40;;;;;;5046488;28;20017;-65
2023/08/26 01:28:52;;;;;;;7.97;2.17;;;41.60;38.40;;;;;;5046129;28;20017;-62
2023/08/26 01:31:20;;;;;;;7.78;2.25;;;41.50;37.90;;;;;;5050074;28;20013;-61
2023/08/26 01:34:01;;;;;;;10.13;2.50;;;41.40;38.20;;;;;;5046878;28;20473;-62
2023/08/26 01:36:31;;;;;;;14.75;2.60;;;41.40;37.80;;;;;;5052726;28;20078;-63
2023/08/26 01:38:58;;;;;;;8.95;2.50;;;41.30;38.00;;;;;;5044484;28;20377;-63
2023/08/26 01:41:25;;;;;;;12.52;2.55;;;41.20;38.40;;;;;;5046286;28;20017;-62
2023/08/26 01:43:53;;;;;;;14.02;2.63;;;41.10;38.40;;;;;;5051641;28;20016;-63
2023/08/26 01:46:19;;;;;;;6.40;2.30;;;41.00;39.00;;;;;;5046239;28;20013;-63
2023/08/26 01:48:46;;;;;;;9.70;2.38;;;40.90;39.00;;;;;;5045970;28;20046;-62
2023/08/26 01:51:13;;;;;;;6.30;2.60;;;40.90;39.90;;;;;;5046322;28;20132;-62
2023/08/26 01:53:40;;;;;;;17.92;3.30;;;40.70;39.60;;;;;;5044934;28;20561;-62
2023/08/26 01:56:06;;;;;;;9.85;2.60;;;40.70;39.80;;;;;;5046232;28;20024;-62
2023/08/26 01:58:33;;;;;;;8.60;2.53;;;40.70;39.10;;;;;;5045459;28;20032;-63
2023/08/26 02:01:06;;;;;;;13.65;2.70;;;40.60;39.90;;;;;;5045774;28;20870;-62
2023/08/26 02:03:32;;;;;;;13.13;2.53;;;40.40;39.30;;;;;;5045151;28;20055;-63
2023/08/26 02:05:59;;;;;;;9.18;2.45;;;40.40;40.10;;;;;;5047310;28;20013;-64
2023/08/26 02:08:25;;;;;;;15.55;3.15;;;40.30;40.80;;;;;;5051217;28;20554;-61
2023/08/26 02:10:55;;;;;;;17.85;3.10;;;40.20;40.60;;;;;;5046259;28;20025;-60
2023/08/26 02:13:23;;;;;;;25.08;4.47;;;40.20;40.70;;;;;;5044800;28;20013;-64
2023/08/26 02:15:49;;;;;;;24.27;3.28;;;40.00;40.20;;;;;;5048049;28;20020;-62
2023/08/26 02:18:16;;;;;;;12.95;3.45;;;40.00;40.90;;;;;;5044598;28;20483;-61
2023/08/26 02:20:43;;;;;;;25.02;3.22;;;39.90;40.50;;;;;;5050107;28;20021;-62
2023/08/26 02:23:12;;;;;;;10.75;2.92;;;39.90;40.80;;;;;;5045688;28;20189;-62
2023/08/26 02:25:39;;;;;;;13.77;3.00;;;39.80;40.20;;;;;;5045537;28;20021;-64
2023/08/26 02:28:06;;;;;;;13.68;2.92;;;39.70;40.70;;;;;;5044826;28;20051;-63
2023/08/26 02:30:32;;;;;;;15.63;3.05;;;39.60;40.40;;;;;;5046839;28;20466;-61
2023/08/26 02:32:58;;;;;;;9.98;2.72;;;39.60;40.90;;;;;;5045159;28;20020;-64
2023/08/26 02:35:25;;;;;;;16.55;3.13;;;39.50;40.60;;;;;;5046388;28;20017;-62
2023/08/26 02:37:51;;;;;;;15.82;3.10;;;39.40;41.10;;;;;;5046075;28;20048;-62
2023/08/26 02:40:18;;;;;;;14.75;2.92;;;39.40;41.70;;;;;;5044487;28;20013;-62
2023/08/26 02:42:45;;;;;;;12.45;3.00;;;39.30;41.20;;;;;;5045552;28;20022;-63
2023/08/26 02:45:12;;;;;;;12.05;3.10;;;39.30;42.20;;;;;;5048592;28;20092;-62
2023/08/26 02:47:38;;;;;;;12.95;2.88;;;39.20;43.30;;;;;;5049232;28;20469;-60
2023/08/26 02:50:05;;;;;;;13.05;3.70;;;39.10;42.00;;;;;;5049646;28;20032;-63
2023/08/26 02:52:31;;;;;;;26.42;3.70;;;39.00;42.80;;;;;;5045704;28;20029;-64
2023/08/26 02:54:58;;;;;;;12.63;3.53;;;39.00;42.90;;;;;;5057799;28;20035;-59
2023/08/26 02:57:25;;;;;;;16.73;3.88;;;38.90;41.90;;;;;;5056334;28;20033;-59
2023/08/26 02:59:52;;;;;;;11.48;4.78;;;38.80;42.60;;;;;;5055892;28;20017;-62
2023/08/26 03:02:24;;;;;;;21.63;4.95;;;38.80;42.60;;;;;;5048554;28;20043;-61
2023/08/26 03:04:51;;;;;;;20.25;4.90;;;38.70;42.30;;;;;;5049387;28;20065;-60
2023/08/26 03:07:18;;;;;;;15.93;3.17;;;38.70;43.30;;;;;;5051549;28;20073;-61
2023/08/26 03:09:44;;;;;;;21.88;4.18;;;38.60;42.50;;;;;;5049542;28;20495;-62
2023/08/26 03:12:11;;;;;;;17.10;3.95;;;38.60;43.50;;;;;;5047933;28;20020;-61
2023/08/26 03:14:37;;;;;;;14.57;3.88;;;38.50;43.10;;;;;;5048703;28;20021;-63
2023/08/26 03:17:03;;;;;;;14.38;3.70;;;38.40;42.70;;;;;;5052473;28;20171;-63
2023/08/26 03:19:30;;;;;;;14.88;4.50;;;38.30;42.60;;;;;;5048499;28;20086;-61
2023/08/26 03:21:56;;;;;;;14.85;4.30;;;38.30;43.30;;;;;;5048697;28;20009;-60
2023/08/26 03:24:23;;;;;;;24.75;4.60;;;38.20;43.80;;;;;;5048583;28;20013;-62
2023/08/26 03:26:49;;;;;;;21.85;4.80;;;38.20;43.50;;;;;;5057625;28;20040;-61
2023/08/26 03:29:15;;;;;;;23.60;4.45;;;38.10;44.10;;;;;;5048259;28;20017;-61
2023/08/26 03:31:43;;;;;;;17.35;4.15;;;38.10;44.60;;;;;;5049281;28;20024;-62
2023/08/26 03:34:09;;;;;;;19.50;3.97;;;38.00;44.90;;;;;;5049347;28;20029;-61
2023/08/26 03:36:36;;;;;;;18.38;4.63;;;38.00;44.50;;;;;;5046917;28;20075;-61
2023/08/26 03:39:02;;;;;;;18.30;4.80;;;37.90;44.50;;;;;;5049058;28;20064;-60
2023/08/26 03:41:29;;;;;;;25.48;4.15;;;37.80;44.70;;;;;;5059785;28;20009;-63
2023/08/26 03:43:56;;;;;;;24.20;3.95;;;37.80;45.30;;;;;;5047177;28;20112;-61
2023/08/26 03:46:23;;;;;;;23.90;4.22;;;37.70;43.80;;;;;;5053157;28;20078;-62
2023/08/26 03:48:49;;;;;;;20.40;4.03;;;37.70;44.60;;;;;;5048064;28;20369;-60
2023/08/26 03:51:16;;;;;;;19.58;3.83;;;37.70;43.90;;;;;;5048221;28;20099;-63
2023/08/26 03:53:42;;;;;;;15.88;4.25;;;37.60;43.90;;;;;;5050642;28;20021;-63
2023/08/26 03:56:09;;;;;;;19.00;5.05;;;37.60;44.20;;;;;;5048599;28;20563;-61
2023/08/26 03:58:35;;;;;;;20.95;6.00;;;37.60;43.90;;;;;;5048182;28;20033;-62
2023/08/26 04:01:06;;;;;;;17.02;4.97;;;37.60;42.90;;;;;;5048051;28;20020;-61
2023/08/26 04:03:33;;;;;;;10.80;4.80;;;37.60;43.10;;;;;;5047800;28;20116;-61
2023/08/26 04:06:00;;;;;;;12.00;3.95;;;37.70;43.30;;;;;;5048230;28;20021;-62
2023/08/26 04:08:28;;;;;;;14.60;5.03;;;37.70;42.90;;;;;;5048677;28;20016;-61
2023/08/26 04:10:56;;;;;;;12.18;4.68;;;37.70;43.10;;;;;;5049887;28;20145;-62
2023/08/26 04:13:25;;;;;;;8.57;4.15;;;37.60;43.10;;;;;;5045330;28;20021;-61
2023/08/26 04:16:02;;;;;;;15.38;4.18;;;37.60;43.40;;;;;;5048128;28;20021;-62
2023/08/26 04:18:29;;;;;;;9.20;4.85;;;37.60;43.50;;;;;;5047871;28;20025;-62
2023/08/26 04:20:56;;;;;;;7.78;4.47;;;37.60;44.00;;;;;;5047807;28;20012;-60
2023/08/26 04:23:23;;;;;;;10.52;4.50;;;37.60;44.20;;;;;;5047926;28;20017;-63
2023/08/26 04:25:54;;;;;;;18.90;4.25;;;37.50;43.90;;;;;;5046817;28;20393;-61
2023/08/26 04:28:20;;;;;;;20.00;4.50;;;37.50;44.10;;;;;;5048953;28;20064;-62
2023/08/26 04:30:47;;;;;;;19.48;5.03;;;37.40;44.50;;;;;;5049163;28;20043;-62
2023/08/26 04:33:13;;;;;;;16.35;4.68;;;37.30;44.50;;;;;;5047770;28;20477;-61
2023/08/26 04:35:39;;;;;;;11.60;4.93;;;37.30;44.60;;;;;;5046321;28;20165;-62
2023/08/26 04:38:06;;;;;;;13.63;5.00;;;37.20;44.80;;;;;;5047822;28;20044;-60
2023/08/26 04:40:32;;;;;;;9.05;4.70;;;37.20;45.40;;;;;;5046051;28;20425;-61
2023/08/26 04:43:01;;;;;;;9.52;5.78;;;37.10;45.50;;;;;;5046818;28;20013;-61
2023/08/26 04:45:27;;;;;;;15.43;4.75;;;37.10;45.20;;;;;;5047754;28;20327;-63
2023/08/26 04:47:54;;;;;;;13.77;5.18;;;37.00;45.50;;;;;;5049891;28;20131;-61
2023/08/26 04:50:20;;;;;;;11.35;4.80;;;36.90;45.80;;;;;;5050584;28;20028;-61
2023/08/26 04:52:47;;;;;;;13.10;4.93;;;36.90;45.70;;;;;;5049012;28;20025;-63
2023/08/26 04:55:13;;;;;;;20.45;5.30;;;36.80;46.00;;;;;;5057910;28;20025;-61
2023/08/26 04:57:40;;;;;;;12.88;4.88;;;36.70;46.10;;;;;;5047002;28;20025;-62
2023/08/26 05:00:10;;;;;;;11.88;4.30;;;36.70;46.40;;;;;;5059109;28;20013;-62
2023/08/26 05:02:38;;;;;;;14.38;4.55;;;36.60;46.60;;;;;;5045871;28;20547;-62
2023/08/26 05:05:05;;;;;;;17.15;5.07;;;36.60;46.20;;;;;;5052347;28;20026;-61
2023/08/26 05:07:32;;;;;;;12.18;4.43;;;36.60;47.20;;;;;;5050189;28;20104;-63
2023/08/26 05:09:58;;;;;;;11.52;4.22;;;36.50;46.70;;;;;;5047206;28;20017;-61
2023/08/26 05:12:26;;;;;;;14.25;4.60;;;36.50;47.20;;;;;;5047710;28;20021;-62
2023/08/26 05:14:52;;;;;;;13.93;4.95;;;36.40;47.10;;;;;;5051033;28;20266;-63
2023/08/26 05:17:18;;;;;;;13.43;5.93;;;36.30;46.70;;;;;;5046793;28;20037;-61
2023/08/26 05:19:45;;;;;;;14.23;4.50;;;36.10;46.90;;;;;;5044300;28;20021;-59
2023/08/26 05:22:11;;;;;;;12.88;4.93;;;36.10;47.30;;;;;;5048126;28;20103;-60
2023/08/26 05:24:37;;;;;;;21.58;5.47;;;36.00;46.80;;;;;;5048912;28;20079;-61
2023/08/26 05:27:04;;;;;;;15.27;5.13;;;35.90;46.70;;;;;;5048945;28;20021;-62
2023/08/26 05:29:30;;;;;;;14.63;4.93;;;35.90;47.30;;;;;;5046429;28;20068;-61
2023/08/26 05:31:57;;;;;;;16.13;4.93;;;35.80;47.30;;;;;;5046686;28;20044;-60
2023/08/26 05:34:23;;;;;;;15.40;5.20;;;35.80;47.40;;;;;;5045611;28;20446;-61
2023/08/26 05:36:51;;;;;;;18.13;5.15;;;35.80;47.60;;;;;;5046470;28;20374;-62
2023/08/26 05:39:17;;;;;;;17.25;5.45;;;35.80;47.10;;;;;;5045867;28;20017;-62
2023/08/26 05:41:43;;;;;;;13.50;4.57;;;35.70;47.20;;;;;;5046625;28;20009;-62
2023/08/26 05:44:10;;;;;;;15.77;4.68;;;35.70;47.30;;;;;;5046847;28;20092;-62
2023/08/26 05:46:36;;;;;;;15.20;4.90;;;35.60;47.40;;;;;;5051109;28;20055;-62
2023/08/26 05:49:03;;;;;;;16.75;5.05;;;35.60;47.40;;;;;;5046180;28;20021;-62
2023/08/26 05:51:29;;;;;;;8.88;4.03;;;35.50;47.00;;;;;;5046730;28;20044;-64
2023/08/26 05:53:56;;;;;;;9.60;3.92;;;35.50;46.90;;;;;;5048534;28;20005;-63
2023/08/26 05:56:22;;;;;;;14.18;4.22;;;35.40;47.00;;;;;;5049628;28;20017;-65
2023/08/26 05:58:49;;;;;;;13.80;4.30;;;35.40;46.80;;;;;;5052440;28;20495;-64
2023/08/26 06:01:15;;;;;;;15.48;4.63;;;35.40;46.80;;;;;;5046987;28;20048;-63
2023/08/26 06:03:42;;;;;;;15.38;5.07;;;35.40;47.30;;;;;;5047152;28;20145;-63
2023/08/26 06:06:08;;;;;;;16.50;6.00;;;35.30;46.30;;;;;;5056946;28;20017;-63
2023/08/26 06:08:35;;;;;;;16.25;5.40;;;35.30;46.40;;;;;;5045739;28;20032;-63
2023/08/26 06:11:01;;;;;;;11.35;3.72;;;35.30;46.80;;;;;;5046231;28;20056;-61
2023/08/26 06:13:28;;;;;;;11.00;3.83;;;35.30;46.00;;;;;;5045240;28;20074;-62
2023/08/26 06:15:58;;;;;;;11.88;3.67;;;35.30;46.20;;;;;;5047971;28;20050;-63
2023/08/26 06:18:25;;;;;;;11.82;3.50;;;35.30;45.90;;;;;;5054912;28;20092;-61
2023/08/26 06:20:51;;;;;;;9.90;3.85;;;35.30;45.80;;;;;;5049942;28;20101;-62
2023/08/26 06:23:21;;;;;;;13.70;4.05;;;35.30;45.80;;;;;;5053612;28;20024;-63
2023/08/26 06:25:55;;;;;;;18.27;4.38;;;35.20;46.40;;;;;;5049435;28;20021;-62
2023/08/26 06:28:22;;;;;;;10.55;3.40;;;35.20;46.20;;;;;;5049719;28;20025;-63
2023/08/26 06:30:48;;;;;;;17.80;3.58;;;35.20;46.20;;;;;;5049942;28;20041;-62
2023/08/26 06:33:15;;;;;;;11.57;3.78;;;35.10;46.40;;;;;;5051926;28;20092;-63
2023/08/26 06:35:49;;;;;;;14.35;4.20;;;35.10;47.20;;;;;;5050942;28;20028;-60
2023/08/26 06:38:16;;;;;;;10.13;4.05;;;35.00;46.20;;;;;;5049716;28;20074;-63
2023/08/26 06:40:42;;;;;;;8.18;3.55;;;35.00;46.10;;;;;;5050241;28;20105;-61
2023/08/26 06:43:09;;;;;;;11.52;3.50;;;35.00;46.40;;;;;;5049693;28;20005;-63
2023/08/26 06:45:35;;;;;;;13.88;3.72;;;34.90;46.40;;;;;;5051881;28;20043;-62
2023/08/26 06:48:02;;;;;;;13.10;3.35;;;34.80;46.50;;;;;;5054681;28;20020;-62
2023/08/26 06:50:28;;;;;;;11.65;3.75;;;34.80;46.70;;;;;;5054569;28;20021;-61
2023/08/26 06:52:55;;;;;;;13.20;3.70;;;34.80;46.60;;;;;;5049335;28;20434;-64
2023/08/26 06:55:21;;;;;;;11.07;3.28;;;34.70;46.80;;;;;;5054290;28;20063;-61
2023/08/26 06:57:47;;;;;;;18.80;3.30;;;34.70;46.10;;;;;;5049495;28;20039;-61
2023/08/26 07:00:15;;;;;;;8.68;2.95;;;34.70;47.00;;;;;;5049362;28;20067;-61
2023/08/26 07:02:41;;;;;;;8.20;3.03;;;34.70;46.60;;;;;;5048724;28;20037;-60
2023/08/26 07:05:08;;;;;;;9.32;3.53;;;34.60;46.80;;;;;;5048854;28;20047;-61
2023/08/26 07:07:36;;;;;;;12.30;3.65;;;34.60;46.30;;;;;;5052552;28;20009;-62
2023/08/26 07:10:04;;;;;;;13.23;3.30;;;34.60;46.50;;;;;;5052237;28;20029;-60
2023/08/26 07:12:31;;;;;;;7.57;3.33;;;34.60;46.60;;;;;;5049362;28;20009;-61
2023/08/26 07:14:58;;;;;;;15.43;3.22;;;34.50;46.10;;;;;;5059046;28;20021;-60
2023/08/26 07:17:24;;;;;;;8.25;2.80;;;34.50;46.80;;;;;;5049509;28;20040;-61
2023/08/26 07:19:50;;;;;;;7.35;3.40;;;34.50;46.70;;;;;;5050476;28;20025;-61
2023/08/26 07:22:17;;;;;;;9.50;3.53;;;34.40;46.80;;;;;;5049697;28;20521;-61
2023/08/26 07:24:43;;;;;;;11.38;3.75;;;34.40;46.60;;;;;;5050328;28;20035;-60
2023/08/26 07:27:10;;;;;;;15.88;4.40;;;34.40;46.30;;;;;;5049270;28;20016;-61
2023/08/26 07:29:37;;;;;;;12.00;3.20;;;34.40;46.40;;;;;;5050248;28;20024;-61
2023/08/26 07:32:04;;;;;;;11.75;3.65;;;34.40;46.20;;;;;;5048887;28;20388;-62
2023/08/26 07:34:31;;;;;;;10.10;3.15;;;34.30;46.20;;;;;;5056516;28;20013;-62
2023/08/26 07:36:58;;;;;;;11.95;3.40;;;34.30;46.70;;;;;;5049177;28;20043;-61
2023/08/26 07:39:25;;;;;;;11.63;3.92;;;34.20;46.40;;;;;;5050184;28;20121;-60
2023/08/26 07:41:52;;;;;;;10.50;3.38;;;34.30;46.30;;;;;;5049291;28;20354;-61
2023/08/26 07:44:18;;;;;;;11.88;3.03;;;34.30;45.90;;;;;;5048937;28;20023;-61
2023/08/26 07:46:45;;;;;;;7.43;2.90;;;34.30;46.10;;;;;;5054777;28;20017;-63
2023/08/26 07:49:11;;;;;;;6.63;2.80;;;34.30;45.90;;;;;;5049935;28;20039;-60
2023/08/26 07:51:40;;;;;;;8.18;2.80;;;34.30;45.90;;;;;;5051394;28;20017;-61
2023/08/26 07:54:07;;;;;;;12.15;3.40;;;34.30;46.30;;;;;;5049583;28;20016;-62
2023/08/26 07:56:34;;;;;;;14.20;3.55;;;34.20;46.40;;;;;;5048874;28;20526;-61
2023/08/26 07:59:00;;;;;;;12.18;3.03;;;34.30;46.80;;;;;;5048541;28;20461;-62
2023/08/26 08:01:26;;;;;;;15.68;2.88;;;34.20;46.20;;;;;;5054325;28;20032;-62
2023/08/26 08:03:53;;;;;;;10.48;2.90;;;34.20;46.40;;;;;;5048245;28;20454;-62
2023/08/26 08:06:19;;;;;;;11.77;3.20;;;34.10;46.40;;;;;;5048799;28;20496;-61
2023/08/26 08:08:46;;;;;;;10.15;2.80;;;34.10;46.30;;;;;;5049622;28;20021;-63
2023/08/26 08:11:12;;;;;;;15.95;3.20;;;34.10;47.00;;;;;;5049070;28;20032;-62
2023/08/26 08:13:38;;;;;;;10.15;3.05;;;34.10;46.80;;;;;;5051369;28;20021;-62
2023/08/26 08:16:05;;;;;;;11.50;3.50;;;34.10;46.40;;;;;;5051683;28;20058;-61
2023/08/26 08:18:31;;;;;;;8.00;2.63;;;34.00;47.10;;;;;;5048550;28;20951;-60
2023/08/26 08:20:58;;;;;;;10.38;3.15;;;34.00;46.70;;;;;;5048816;28;20400;-62
2023/08/26 08:23:24;;;;;;;13.60;3.35;;;34.00;47.30;;;;;;5048051;28;20358;-60
2023/08/26 08:25:50;;;;;;;8.90;3.30;;;33.80;48.10;;;;;;5054936;28;20017;-59
2023/08/26 08:28:17;;;;;;;11.38;3.83;;;33.60;49.00;;;;;;5048078;28;20017;-60
2023/08/26 08:30:43;;;;;;;8.30;2.70;;;33.60;49.30;;;;;;5048076;28;20104;-63
2023/08/26 08:33:10;;;;;;;9.05;2.75;;;33.40;49.30;;;;;;5047642;28;20036;-60
2023/08/26 08:35:37;;;;;;;11.20;2.97;;;33.30;49.80;;;;;;5054141;28;20021;-61
2023/08/26 08:38:03;;;;;;;11.55;2.75;;;33.20;50.00;;;;;;5051850;28;20035;-61
2023/08/26 08:40:30;;;;;;;8.20;2.97;;;33.10;50.00;;;;;;5048448;28;20017;-61
2023/08/26 08:42:58;;;;;;;10.18;2.95;;;33.00;50.50;;;;;;5047237;28;20081;-60
2023/08/26 08:45:25;;;;;;;14.90;3.45;;;33.00;50.60;;;;;;5050767;28;20426;-61
2023/08/26 08:47:53;;;;;;;8.23;2.88;;;32.90;50.30;;;;;;5047815;28;20017;-60
2023/08/26 08:50:21;;;;;;;6.68;2.53;;;32.70;50.40;;;;;;5047430;28;20021;-61
2023/08/26 08:52:54;;;;;;;9.32;2.85;;;32.70;50.70;;;;;;5049262;28;20020;-60
2023/08/26 08:55:21;;;;;;;7.68;2.78;;;32.70;50.60;;;;;;5048750;28;20028;-60
2023/08/26 08:57:50;;;;;;;8.50;2.30;;;32.60;51.20;;;;;;5046238;28;20438;-61
2023/08/26 09:00:18;;;;;;;8.48;2.50;;;32.60;51.00;;;;;;5048974;28;20017;-61
2023/08/26 09:02:47;;;;;;;9.95;2.47;;;32.60;50.80;;;;;;5051744;28;20112;-60
2023/08/26 09:05:14;;;;;;;11.55;2.67;;;32.50;51.30;;;;;;5047988;28;20010;-60
2023/08/26 09:07:41;;;;;;;9.50;2.35;;;32.50;50.50;;;;;;5045443;28;20549;-60
2023/08/26 09:10:12;;;;;;;8.93;1.85;;;32.50;51.10;;;;;;5047282;28;20064;-60
2023/08/26 09:12:39;;;;;;;7.70;2.20;;;32.50;51.60;;;;;;5046328;28;20027;-61
2023/08/26 09:15:07;;;;;;;11.43;2.05;;;32.40;51.30;;;;;;5051942;28;20393;-60
2023/08/26 09:17:33;;;;;;;6.18;2.28;;;32.40;51.10;;;;;;5051366;28;20024;-60
2023/08/26 09:20:02;;;;;;;6.30;2.10;;;32.40;50.30;;;;;;5047441;28;20013;-61
2023/08/26 09:22:30;;;;;;;11.15;2.40;;;32.40;51.10;;;;;;5047082;28;20504;-61
2023/08/26 09:24:59;;;;;;;6.15;2.10;;;32.40;50.50;;;;;;5046798;28;20400;-61
2023/08/26 09:27:25;;;;;;;8.85;2.33;;;32.40;51.20;;;;;;5046312;28;20769;-61
2023/08/26 09:29:52;;;;;;;11.75;2.63;;;32.30;51.30;;;;;;5047197;28;20021;-62
2023/08/26 09:32:40;;;;;;;9.75;2.58;;;32.30;50.50;;;;;;5049514;28;20496;-60
2023/08/26 09:35:14;;;;;;;9.02;2.10;;;32.30;51.00;;;;;;5047882;28;20041;-60
2023/08/26 09:37:42;;;;;;;8.90;2.03;;;32.40;50.50;;;;;;5047264;28;20036;-62
2023/08/26 09:40:13;;;;;;;12.15;2.30;;;32.40;50.40;;;;;;5045801;28;20013;-61
2023/08/26 09:42:41;;;;;;;9.50;2.13;;;32.40;50.50;;;;;;5051931;28;20028;-60
2023/08/26 09:45:13;;;;;;;8.27;1.92;;;32.30;50.00;;;;;;5045852;28;20102;-61
2023/08/26 09:47:40;;;;;;;16.05;2.30;;;32.30;50.20;;;;;;5046559;28;20112;-62
2023/08/26 09:50:08;;;;;;;5.43;1.60;;;32.30;50.80;;;;;;5047138;28;20021;-62
2023/08/26 09:52:46;;;;;;;8.30;2.00;;;32.20;50.90;;;;;;5045826;28;20457;-60
2023/08/26 09:55:13;;;;;;;8.25;2.33;;;32.10;50.70;;;;;;5058738;28;20543;-60
2023/08/26 09:57:40;;;;;;;5.72;2.03;;;32.10;50.80;;;;;;5050569;28;20021;-60
2023/08/26 10:00:11;;;;;;;9.48;1.75;;;32.10;50.80;;;;;;5047211;28;20016;-60
2023/08/26 10:03:03;;;;;;;9.40;1.90;;;32.10;50.60;;;;;;5048072;28;20063;-63
2023/08/26 10:05:37;;;;;;;6.88;2.08;;;32.10;50.70;;;;;;5046784;28;20021;-60
2023/08/26 10:08:07;;;;;;;11.77;2.38;;;32.00;51.00;;;;;;5050272;28;20048;-62
2023/08/26 10:10:56;;;;;;;15.55;2.22;;;31.90;51.10;;;;;;5046971;28;20059;-62
2023/08/26 10:13:27;;;;;;;9.73;2.40;;;31.90;51.70;;;;;;5044916;28;20377;-59
2023/08/26 10:15:57;;;;;;;9.63;2.47;;;31.80;51.60;;;;;;5046523;28;20092;-61
2023/08/26 10:18:34;;;;;;;11.20;2.47;;;31.90;51.30;;;;;;5046487;28;20151;-63
2023/08/26 10:21:04;;;;;;;10.73;2.42;;;31.80;51.50;;;;;;5046320;28;20542;-62
2023/08/26 10:23:32;;;;;;;9.25;2.13;;;31.80;52.20;;;;;;5046151;28;20108;-61
2023/08/26 10:25:59;;;;;;;14.40;2.42;;;31.70;52.20;;;;;;5054479;28;20052;-60
2023/08/26 10:28:26;;;;;;;14.75;2.72;;;31.70;53.30;;;;;;5046082;28;20106;-60
2023/08/26 10:30:54;;;;;;;12.00;2.25;;;31.50;52.30;;;;;;5046902;28;20462;-60
2023/08/26 10:33:21;;;;;;;14.77;2.40;;;31.50;52.10;;;;;;5045897;28;20480;-60
2023/08/26 10:36:13;;;;;;;12.48;2.50;;;31.50;52.40;;;;;;5047182;28;20025;-60
2023/08/26 10:38:40;;;;;;;10.57;2.50;;;31.50;52.80;;;;;;5040005;28;20187;-60
2023/08/26 10:41:10;;;;;;;10.32;2.40;;;31.50;52.70;;;;;;5050619;28;20028;-61
2023/08/26 10:43:37;;;;;;;11.68;2.10;;;31.50;52.30;;;;;;5047897;28;20024;-61
2023/08/26 10:46:03;;;;;;;12.43;2.65;;;31.50;52.30;;;;;;5046206;28;20017;-59
2023/08/26 10:48:50;;;;;;;7.60;2.38;;;31.50;52.20;;;;;;5046163;28;20017;-60
2023/08/26 10:51:16;;;;;;;10.63;2.50;;;31.50;51.70;;;;;;5045785;28;20013;-66
2023/08/26 10:53:48;;;;;;;16.67;2.47;;;31.40;52.10;;;;;;5046453;28;20021;-59
2023/08/26 10:56:19;;;;;;;8.77;2.00;;;31.30;52.20;;;;;;5047600;28;20020;-60
2023/08/26 10:58:46;;;;;;;13.90;2.72;;;31.30;52.20;;;;;;5045506;28;20032;-65
2023/08/26 11:01:13;;;;;;;20.58;3.10;;;31.40;52.30;;;;;;5054122;28;20097;-61
2023/08/26 11:03:40;;;;;;;6.47;2.75;;;31.40;52.10;;;;;;5049129;28;20393;-61
2023/08/26 11:06:11;;;;;;;8.70;2.25;;;31.40;52.20;;;;;;5050794;28;20009;-60
2023/08/26 11:08:38;;;;;;;6.15;2.30;;;31.40;52.20;;;;;;5049448;28;20048;-61
2023/08/26 11:11:10;;;;;;;7.72;2.40;;;31.40;52.70;;;;;;5049520;28;20358;-61
2023/08/26 11:13:36;;;;;;;6.47;2.40;;;31.40;52.30;;;;;;5047784;28;20013;-61
2023/08/26 11:16:03;;;;;;;8.30;2.63;;;31.40;52.70;;;;;;5049380;28;20037;-60
2023/08/26 11:18:30;;;;;;;9.50;2.28;;;31.40;52.30;;;;;;5047939;28;20043;-60
2023/08/26 11:21:04;;;;;;;9.55;2.80;;;31.40;52.00;;;;;;5048758;28;20085;-61
2023/08/26 11:23:32;;;;;;;7.85;2.47;;;31.30;52.10;;;;;;5048749;28;20021;-61
2023/08/26 11:25:59;;;;;;;9.20;2.35;;;31.30;51.90;;;;;;5047973;28;20385;-61
2023/08/26 11:28:27;;;;;;;7.60;2.08;;;31.30;51.60;;;;;;5051963;28;20016;-60
2023/08/26 11:30:54;;;;;;;5.53;2.45;;;31.30;52.20;;;;;;5049697;28;20050;-61
2023/08/26 11:33:21;;;;;;;11.45;2.30;;;31.30;52.50;;;;;;5048840;28;20042;-63
2023/08/26 11:35:49;;;;;;;8.90;2.35;;;31.30;52.20;;;;;;5047211;28;20123;-61
2023/08/26 11:38:16;;;;;;;8.00;2.40;;;31.30;52.60;;;;;;5049321;28;20029;-61
2023/08/26 11:40:43;;;;;;;10.57;2.55;;;31.20;53.20;;;;;;5048995;28;21203;-60
2023/08/26 11:43:13;;;;;;;8.82;2.50;;;31.20;53.00;;;;;;5049311;28;20039;-61
2023/08/26 11:45:42;;;;;;;14.38;2.35;;;31.10;52.30;;;;;;5048723;28;20405;-60
2023/08/26 11:48:11;;;;;;;7.50;2.28;;;31.10;52.80;;;;;;5056193;28;20480;-64
2023/08/26 11:50:39;;;;;;;11.50;2.88;;;31.10;52.50;;;;;;5047898;28;20522;-61
2023/08/26 11:53:05;;;;;;;11.02;2.13;;;31.10;52.70;;;;;;5048489;28;20017;-61
2023/08/26 11:55:33;;;;;;;8.45;2.78;;;31.10;52.50;;;;;;5047431;28;20029;-59
2023/08/26 11:58:01;;;;;;;11.00;2.85;;;31.00;53.60;;;;;;5056505;28;20365;-61
2023/08/26 12:00:28;;;;;;;9.77;2.50;;;31.00;53.50;;;;;;5048888;28;20503;-60
2023/08/26 12:03:02;;;;;;;8.15;2.65;;;30.90;53.60;;;;;;5048805;28;20089;-63
2023/08/26 12:05:48;;;;;;;8.68;2.20;;;30.80;53.90;;;;;;5055453;28;20024;-62
2023/08/26 12:08:16;;;;;;;11.60;2.53;;;30.80;54.30;;;;;;5048712;28;20025;-62
2023/08/26 12:10:49;;;;;;;16.08;3.05;;;30.70;54.80;;;;;;5048671;28;20028;-59
2023/08/26 12:13:16;;;;;;;14.30;3.10;;;30.60;55.80;;;;;;5047888;28;20435;-62
2023/08/26 12:15:43;;;;;;;17.77;3.92;;;30.50;54.80;;;;;;5049353;28;20046;-60
2023/08/26 12:18:10;;;;;;;13.40;3.00;;;30.60;55.20;;;;;;5053925;28;20177;-62
2023/08/26 12:20:37;;;;;;;26.55;3.70;;;30.60;54.90;;;;;;5051584;28;20043;-61
2023/08/26 12:23:06;;;;;;;15.30;3.28;;;30.60;54.90;;;;;;5055532;28;20036;-61
2023/08/26 12:25:37;;;;;;;10.95;3.08;;;30.50;55.20;;;;;;5048262;28;20024;-60
2023/08/26 12:28:12;;;;;;;9.10;2.65;;;30.50;55.10;;;;;;5046632;28;20125;-59
2023/08/26 12:30:43;;;;;;;8.77;3.25;;;30.50;54.60;;;;;;5047928;28;20044;-63
2023/08/26 12:33:10;;;;;;;15.05;3.33;;;30.50;54.40;;;;;;5048498;28;20021;-61
2023/08/26 12:35:38;;;;;;;13.55;2.65;;;30.50;54.20;;;;;;5047410;28;20507;-61
2023/08/26 12:38:05;;;;;;;17.55;3.30;;;30.40;54.30;;;;;;5049605;28;20108;-61
2023/08/26 12:40:40;;;;;;;10.45;2.80;;;30.40;55.30;;;;;;5051804;28;20042;-61
2023/08/26 12:43:07;;;;;;;11.80;3.13;;;30.40;54.90;;;;;;5048846;28;20039;-61